My Meet Scores
Sophia Moreno, Phenom Gymnastics - MyMeetScores.com
Top100 | Top Teams | Upcoming Meets | Completed Meets | Latest | Add Scores | Help| Support | Bookmark and Share

Sophia Moreno, Phenom Gymnastics
Personal Bests
LevelVault BarsBeamFloorAA
28.7007.800 8.6758.85034.025
39.5509.450 8.9259.05036.700
48.9259.800 9.1509.35036.800
59.2259.525 9.0758.70035.975
79.1508.450 8.5509.17535.025
Meet Scores
Date Meet Team Session Level Division Vault Bars Beam Floor AA
2019-03-01 NGCD Academy's 2019 Flip'r Invitational Phenom Gymnastics 6 7 Jr B 9.150 5 8.150 10 8.550 12 9.175 8 35.025 10
2019-01-18 2019 Bravo Classic Phenom Gymnastics 10A 7 Child 8.875 9T 8.450 16 8.050 19 9.175 15T 34.550 16
2018-12-14 2018 Aspire Classic Phenom Gymnastics 11B 7 Younger 8.550 12 7.500 16 8.075 15 9.000 14T 33.125 14
2018-12-07 2018 MEGA Magic Classic Phenom Gymnastics A6 7 Jr A 7.625 20 0.000 20T 8.250 17 9.075 17 24.950 21
2018-03-08 Level 4 & 5 State Phenom Gymnastics All 5 Ch C 9.125 12T 8.650 10T 8.400 20 8.250 26T 34.425 19
2018-03-02 2018 Flip'r Invitational Phenom Gymnastics 3 5 Jr 9.050 5 9.000 7 8.650 11 8.400 12 35.100 8
2018-02-16 Big Classic Phenom Gymnastics 4A 5 Child B 8.850 9 9.525 2 8.200 12 8.700 13T 35.275 8
2018-01-19 2018 Bravo Classic Phenom Gymnastics 3B 5 Child 9.225 11T 9.150 7 9.025 11T 8.575 18 35.975 13
2017-12-15 2017 Aspire Classic Phenom Gymnastics 5A 5 Younger 8.850 8T 8.350 16T 9.075 9T 8.550 18 34.825 16
2017-12-08 MEGA Magic Classic 2017 Phenom Gymnastics 1A 4 Jr B 8.300 13T 8.775 18T 9.075 14 8.575 18 34.725 16T
2017-11-16 Paul Hamm Thanksgiving Classic - Women Phenom Gymnastics 7 4 Middle 8.850 9T 9.800 3T 9.150 15 9.000 13T 36.800 11
2017-03-10 2017 Illinois Level 4 State Championships Phenom Gymnastics 2 4 Ch F 8.925 10 8.775 17 8.850 20T 8.500 22 35.050 20
2017-02-24 Kinetic Classic Phenom Gymnastics 5,6 4 All Ages 8.800 59T 9.225 34T 9.025 77T 9.350 16T 36.400 32
2017-02-02 The Big Chill Phenom Gymnastics 2 4 9 Under 8.475 14T 8.600 12 7.800 18 8.400 18 33.275 18
2017-01-20 2017 Bravo Classic Phenom Gymnastics 05B 4 9yrs 8.400 6T 8.700 16T 8.325 19 8.350 18T 33.775 15
2016-12-16 2016 Aspire Classic Phenom Gymnastics 7 4 Younger 8.475 18 8.700 10 8.550 18 8.600 17 34.325 14
2016-12-09 MEGA Magic Classic 2016 Phenom Gymnastics 8A 4 Child A 8.300 8 8.625 6 8.725 7 8.325 8 33.975 8
2016-12-02 Ultimate Wish Classic Phenom Gymnastics 5 4 Jr A 8.650 8 8.775 9 8.775 9T 8.850 12 35.050 8
2016-03-04 2016 Illinois Level 3 State Championships Phenom Gymnastics 3 Youth-B 9.525 11 9.325 5 8.350 16 8.675 20 35.875 11
2016-02-20 Big Classic Phenom Gymnastics 3B 3 Child B 8.700 14T 8.950 7T 8.925 11 8.975 11 35.550 12
2016-01-15 2016 Bravo Classic Phenom Gymnastics 15A 3 8yrs 9.550 2 8.850 19T 8.750 11 8.600 19T 35.750 14
2015-12-18 2015 Aspire Classic Phenom Gymnastics 10 3 Younger 9.325 9T 9.450 5 8.875 11 9.050 10 36.700 9
2015-12-11 MEGA Magic Classic 2015 Phenom Gymnastics 8 3 Child A 8.750 11T 8.900 8 8.400 10 8.225 16 34.275 10
2015-01-23 King Arthur Invitational Phenom Gymnastics L2 2 Jr 8.700 13 7.800 15 8.675 11 8.850 11 34.025 13
Get your scores on
a t-shirt, pin, or hoodie

www.lazysuits.com